NCAR-RAP Real-Time Weather Data

Output produced by METARs form (17 December 2018  14:17 UTC)
found at http://weather.rap.ucar.edu/surface/
 
RJCH 171100Z 01005KT 9999 FEW025 SCT050 BKN110 00/M02 Q1005
RJCH 171000Z 02004KT 9999 FEW025 BKN120 01/M01 Q1005
RJCH 170900Z 02004KT 9999 FEW025 BKN120 01/M01 Q1005
RJCH 170800Z 02003KT 9999 FEW020 BKN140 M00/M02 Q1004
RJCH 170700Z VRB02KT 9999 FEW020 SCT/// 04/M02 Q1005
RJCH 170600Z 30008KT 270V340 9999 FEW020 SCT/// 04/M01 Q1004
RJCH 170500Z 31008KT 270V340 9999 FEW020 05/M00 Q1004
RJCH 170400Z 29006KT 9999 FEW015 SCT030 BKN050 04/01 Q1005
RJCH 170300Z 30005KT 9999 FEW018 SCT040 BKN050 04/01 Q1005
RJCH 170200Z 30008KT 9999 FEW018 SCT045 BKN050 04/01 Q1006
RJCH 170100Z 32005KT 270V360 9999 FEW018 SCT030 BKN060 04/02 Q1007
RJCH 170000Z 31007KT 9999 FEW015 SCT030 BKN040 03/02 Q1007
RJCH 162300Z 32006KT 9999 FEW006 SCT040 BKN045 03/02 Q1007
RJCH 162200Z 30005KT 9999 FEW005 SCT045 BKN060 02/01 Q1006
RJCH 162110Z 32004KT 9999 FEW015 SCT030 BKN035 02/02 Q1006 RMK 1ST015 3CU030 5CU035 A2973
RJCH 161100Z 20016KT 9999 -SHRA FEW015 SCT020 BKN025 06/03 Q1011
RJCH 161000Z 21015KT 9999 -SHRA FEW015 SCT018 BKN020 07/04 Q1012
RJCH 160931Z 19015KT 9999 -SHRA FEW015 BKN020 07/04 Q1012 RMK 1ST015 7CU020 A2989
RJCH 160900Z 13008KT 9999 -SHRA FEW015 BKN020 05/03 Q1012
RJCH 160822Z 17008KT 130V220 8000 -SHRA FEW010 BKN020 06/03 Q1013 RMK 1ST010 7CU020 A2992
RJCH 160800Z 22012KT 7000 SHRA FEW012 BKN015 BKN020 06/03 Q1013
RJCH 160700Z 21011G22KT 170V260 9999 -SHRA FEW008 SCT010 BKN012 06/04 Q1014
RJCH 160600Z 25009KT 210V270 9999 -SHRA FEW010 SCT012 BKN018 06/03 Q1015
RJCH 160500Z 22011KT 170V250 9999 -SHRA FEW012 BKN015 BKN025 06/03 Q1015
RJCH 160422Z 21015G25KT 9999 -SHRA FEW015 BKN025 BKN030 06/02 Q1016 RMK 1ST015 5CU025 6CU030 A3001
RJCH 160400Z 23005KT 9999 FEW025 SCT040 BKN060 06/00 Q1016
RJCH 160300Z 26004KT 9999 FEW030 BKN050 05/M02 Q1017
RJCH 160200Z 26011KT 9999 FEW030 BKN050 05/M02 Q1018
RJCH 160100Z 25015KT 9999 FEW030 BKN050 05/M02 Q1020
RJCH 160000Z 25014KT 9999 -SHSNRA FEW030 BKN040 04/M03 Q1020
RJCH 151100Z 28007KT 9999 FEW025 SCT030 BKN035 01/M05 Q1024
RJCH 151000Z 31003KT 280V340 9999 FEW020 SCT025 BKN030 00/M05 Q1024
RJCH 150900Z 29004KT 260V340 9999 FEW025 BKN035 M00/M05 Q1024
RJCH 150800Z 28007KT 250V310 9999 FEW025 SCT030 BKN035 00/M05 Q1024
RJCH 150700Z 28006KT 9999 FEW020 SCT025 BKN030 M00/M05 Q1024
RJCH 150600Z 28010KT 9999 -SHSN FEW015 SCT025 BKN035 M00/M05 Q1024
RJCH 150500Z 28010KT 9999 -SHSN FEW015 SCT030 BKN040 M00/M05 Q1023
RJCH 150400Z 27012KT 9999 -SHSN FEW004 SCT015 BKN030 M01/M04 Q1023
RJCH 150300Z 28010KT 7000 -SHSN FEW003 SCT012 BKN030 M00/M05 Q1023